Date,TemperatureHighF,TemperatureAvgF,TemperatureLowF,DewpointHighF,DewpointAvgF,DewpointLowF,HumidityHigh,HumidityAvg,HumidityLow,PressureMaxIn,PressureMinIn,WindSpeedMaxMPH,WindSpeedAvgMPH,GustSpeedMaxMPH,PrecipitationSumIn
2012-1-1,39,30,19,22,14,8,75,54,36,0.00,40.00,13,6,17,0.00
2012-1-2,55,44,35,24,21,19,53,42,28,0.00,40.00,17,12,25,0.00
2012-1-3,50,46,35,24,20,15,44,35,29,0.00,40.00,18,12,33,0.00
2012-1-4,61,54,48,23,19,16,32,26,22,0.00,40.00,18,10,31,0.00
2012-1-5,56,47,35,26,19,11,46,33,22,0.00,40.00,20,14,46,0.00
2012-1-6,39,34,28,17,12,9,52,40,30,0.00,40.00,14,8,23,0.00
2012-1-7,38,27,14,19,12,9,79,56,37,0.00,40.00,15,7,24,0.00
2012-1-8,44,38,32,27,22,14,58,51,46,0.00,40.00,10,6,19,0.00
2012-1-9,54,47,41,28,24,20,55,42,26,0.00,40.00,12,8,22,0.00
2012-1-10,46,34,17,31,22,8,93,63,41,0.00,40.00,15,7,24,0.00
2012-1-11,28,17,-1,9,5,-4,85,59,41,0.00,40.00,10,4,13,0.00
2012-1-12,36,29,21,11,7,4,56,39,28,0.00,40.00,8,5,15,0.00
2012-1-13,43,38,36,15,8,3,39,28,23,0.00,40.00,10,6,24,0.00
2012-1-14,49,40,31,18,14,10,44,35,24,0.00,40.00,19,10,29,0.00
2012-1-15,46,22,7,20,7,-2,71,55,26,0.00,40.00,19,11,35,0.00
2012-1-16,8,4,-1,-2,-5,-9,70,65,57,0.00,40.00,11,8,16,0.00
2012-1-17,10,-1,-10,-2,-10,-18,73,67,58,0.00,40.00,19,7,24,0.00
2012-1-18,-6,-13,-16,-14,-23,-26,68,61,58,0.00,40.00,12,8,19,0.00
2012-1-19,-2,-6,-12,-11,-14,-21,69,66,63,0.00,40.00,9,6,12,0.00
2012-1-20,29,9,-7,23,3,-14,89,75,68,0.00,40.00,13,6,17,0.00
2012-1-21,48,43,37,34,28,16,69,55,41,0.00,40.00,16,10,31,0.00
2012-1-22,37,33,29,20,12,7,60,42,32,0.00,40.00,16,9,27,0.00
2012-1-23,41,34,21,21,15,9,64,46,37,0.00,40.00,10,7,20,0.00
2012-1-24,42,32,22,16,8,3,64,38,22,0.00,40.00,16,8,29,0.00
2012-1-25,48,42,39,30,23,16,55,46,35,0.00,40.00,30,17,46,0.00
2012-1-26,47,40,32,30,22,11,55,47,36,0.00,40.00,22,12,37,0.00
2012-1-27,34,28,19,14,7,-1,64,43,23,0.00,40.00,18,9,27,0.00
2012-1-28,42,34,28,25,9,3,50,35,27,0.00,40.00,17,11,34,0.00
2012-1-29,54,49,42,33,27,23,57,44,31,0.00,40.00,22,15,42,0.00
2012-1-30,49,44,39,29,25,19,52,46,35,0.00,40.00,20,13,32,0.00
2012-1-31,46,39,32,22,19,15,53,44,28,0.00,40.00,18,9,32,0.00
2012-2-1,45,39,32,24,18,15,56,42,29,0.00,40.00,12,7,17,0.00
2012-2-2,39,34,23,29,24,18,94,70,54,0.00,40.00,7,3,13,0.00
2012-2-3,42,27,17,24,18,14,94,73,41,0.00,40.00,8,5,11,0.00
2012-2-4,46,34,24,21,16,10,77,50,27,0.00,40.00,12,8,18,0.00
2012-2-5,45,36,27,24,14,12,67,42,29,0.00,40.00,10,6,16,0.00
2012-2-6,34,29,24,25,22,16,83,75,66,0.00,40.00,7,6,16,0.00
2012-2-7,25,22,18,18,16,13,85,76,65,0.00,40.00,9,6,12,0.00
2012-2-8,45,30,11,23,15,8,88,58,30,0.00,40.00,12,6,18,0.00
2012-2-9,45,38,27,27,24,14,78,58,46,0.00,40.00,9,6,16,0.00
2012-2-10,27,20,17,16,12,10,84,71,57,0.00,40.00,13,8,17,0.00
2012-2-11,23,17,12,17,12,9,90,80,66,0.00,40.00,11,6,13,0.00
2012-2-12,40,32,24,26,21,15,70,64,55,0.00,40.00,11,8,18,0.00
2012-2-13,43,34,26,26,21,16,86,61,40,0.00,40.00,8,5,11,0.00
2012-2-14,38,30,19,24,20,15,93,68,41,0.00,40.00,10,3,17,0.00
2012-2-15,41,24,11,22,14,7,92,68,39,0.00,40.00,8,4,15,0.00
2012-2-16,42,35,28,20,14,10,56,43,28,0.00,40.00,13,8,25,0.00
2012-2-17,46,37,28,26,21,17,74,52,32,0.00,40.00,10,5,21,0.00
2012-2-18,44,38,33,23,18,12,54,45,29,0.00,40.00,15,9,23,0.00
2012-2-19,41,33,29,16,13,11,54,44,33,0.00,40.00,16,9,26,0.00
2012-2-20,38,34,29,19,14,11,59,44,36,0.00,40.00,15,9,24,0.00
2012-2-21,45,41,32,30,24,19,59,50,45,0.00,40.00,18,10,31,0.00
2012-2-22,49,40,24,34,30,23,96,68,45,0.00,40.00,18,10,40,0.00
2012-2-23,42,26,18,29,19,13,96,76,48,0.00,40.00,7,5,16,0.00
2012-2-24,43,34,16,22,18,13,89,54,38,0.00,40.00,12,6,19,0.00
2012-2-25,42,36,21,27,19,12,87,52,37,0.00,40.00,16,9,28,0.00
2012-2-26,29,21,16,15,10,5,80,62,52,0.00,40.00,12,9,18,0.00
2012-2-27,41,25,16,19,12,6,87,62,27,0.00,40.00,7,4,11,0.00
2012-2-28,42,28,14,15,10,6,70,50,27,0.00,40.00,10,7,19,0.00
2012-2-29,44,33,25,24,13,7,60,44,29,0.00,40.00,14,9,26,0.00
2012-3-1,36,30,24,21,11,6,79,47,30,0.00,40.00,13,7,20,0.00
2012-3-2,36,29,17,20,14,10,88,58,34,0.00,40.00,18,10,31,0.00
2012-3-3,47,41,33,28,23,15,52,49,45,0.00,40.00,23,12,39,0.00
2012-3-4,57,50,44,28,23,16,50,37,22,0.00,40.00,26,16,38,0.00
2012-3-5,61,52,42,27,21,19,54,31,21,0.00,40.00,17,12,39,0.00
2012-3-6,42,32,20,30,16,7,74,52,38,0.00,40.00,11,7,23,0.00
2012-3-7,43,31,18,14,10,7,74,43,26,0.00,40.00,12,7,24,0.00
2012-3-8,51,42,30,19,16,13,54,37,25,0.00,40.00,14,7,28,0.00
2012-3-9,67,54,45,18,15,11,32,22,12,0.00,40.00,17,11,29,0.00
2012-3-10,65,52,37,20,17,13,50,26,15,0.00,40.00,15,10,24,0.00
2012-3-11,63,44,27,29,22,15,75,45,18,0.00,40.00,17,8,36,0.00
2012-3-12,53,43,31,26,18,12,50,37,27,0.00,40.00,14,9,27,0.00
2012-3-13,62,50,35,26,18,4,47,29,18,0.00,40.00,21,11,50,0.00
2012-3-14,49,40,31,27,17,8,52,38,31,0.00,40.00,18,10,26,0.00
2012-3-15,63,53,40,32,29,24,55,40,28,0.00,40.00,18,9,40,0.00
2012-3-16,58,49,32,39,31,22,77,51,33,0.00,40.00,17,8,34,0.00
2012-3-17,52,40,29,43,32,25,89,76,54,0.00,40.00,8,4,27,0.09
2012-3-18,41,36,31,34,30,26,97,78,61,0.00,40.00,10,4,17,0.06
2012-3-19,40,33,29,31,25,10,97,76,41,0.00,40.00,17,7,26,0.56
2012-3-20,45,38,30,28,18,10,53,43,37,0.00,40.00,23,14,38,0.56
2012-3-21,56,43,36,32,28,24,81,57,39,0.00,40.00,16,7,26,0.00
2012-3-22,65,54,35,33,28,-100,85,42,24,0.00,40.00,18,-2,38,0.00
2012-3-23,45,34,30,32,28,20,96,82,48,0.00,40.00,18,6,29,0.16
2012-3-24,31,29,28,28,27,27,96,92,88,0.00,40.00,9,6,13,0.08
2012-3-25,38,33,29,33,30,27,97,88,77,0.00,40.00,8,4,11,0.08
2012-3-26,44,36,30,38,33,29,99,89,74,0.00,40.00,7,4,10,0.04
2012-3-27,60,48,34,34,24,18,85,43,23,0.00,40.00,14,9,24,0.00
2012-3-28,60,43,29,35,29,23,85,59,36,0.00,40.00,16,7,46,0.00
2012-3-29,60,49,38,27,22,20,59,37,22,0.00,40.00,17,10,29,0.00
2012-3-30,65,56,47,35,30,26,58,38,28,0.00,40.00,24,14,46,0.00
2012-3-31,74,56,37,43,37,33,85,53,30,0.00,40.00,9,5,20,0.00
2012-4-1,56,47,38,41,26,14,75,46,29,0.00,40.00,18,10,29,0.15
2012-4-2,53,42,33,19,16,11,48,36,19,0.00,40.00,13,7,21,0.01
2012-4-3,63,46,30,24,18,13,57,35,17,0.00,40.00,13,7,23,0.00
2012-4-4,69,48,35,35,24,10,71,43,20,0.00,40.00,16,7,31,0.00
2012-4-5,52,41,32,21,16,10,54,38,21,0.00,40.00,12,6,17,0.00
2012-4-6,42,35,31,33,29,20,96,79,41,0.00,40.00,10,5,17,0.25
2012-4-7,48,38,28,29,20,12,93,54,24,0.00,40.00,16,8,29,0.02
2012-4-8,54,38,20,24,18,12,84,48,24,0.00,40.00,11,5,16,0.00
2012-4-9,55,40,24,29,22,15,81,50,35,0.00,40.00,12,5,17,0.00
2012-4-10,61,44,28,36,29,24,89,59,36,0.00,40.00,12,6,19,0.00
2012-4-11,66,50,31,38,33,27,90,56,34,0.00,40.00,14,6,19,0.00
2012-4-12,54,49,41,42,33,24,89,57,33,0.00,40.00,19,8,29,0.22
2012-4-13,61,49,38,28,23,15,64,40,18,0.00,40.00,16,8,24,0.05
2012-4-14,63,45,25,32,18,-100,79,44,8,0.00,40.00,15,5,26,0.00
2012-4-15,43,33,30,33,28,24,95,82,64,0.00,40.00,10,7,15,0.12
2012-4-16,56,45,30,33,30,26,92,58,34,0.00,40.00,14,7,22,0.07
2012-4-17,60,50,44,33,26,16,60,40,21,0.00,40.00,14,9,25,0.00
2012-4-18,59,48,40,41,31,20,82,55,29,0.00,40.00,16,6,31,0.00
2012-4-19,59,49,40,33,25,18,57,41,23,0.00,40.00,11,6,19,0.00
2012-4-20,65,57,49,39,33,25,53,41,35,0.00,40.00,23,14,38,0.00
2012-4-21,67,56,45,42,37,33,69,51,32,0.00,40.00,18,6,27,0.00
2012-4-22,84,59,33,44,33,26,92,49,13,0.00,40.00,10,5,25,0.00
2012-4-23,85,66,43,46,37,29,69,39,18,0.00,40.00,8,5,24,0.00
2012-4-24,78,68,57,44,38,33,51,35,23,0.00,40.00,18,10,31,0.00
2012-4-25,79,65,52,49,39,33,84,40,21,0.00,40.00,10,6,22,0.01
2012-4-26,75,59,50,54,48,36,92,68,38,0.00,40.00,13,4,34,0.09
2012-4-27,54,44,38,43,31,25,85,62,47,0.00,40.00,19,11,27,0.14
2012-4-28,53,44,39,36,30,-100,87,61,38,0.00,40.00,9,5,17,0.03
2012-4-29,60,49,36,35,31,28,81,53,32,0.00,40.00,13,7,24,0.00
2012-4-30,61,52,45,42,33,26,70,49,37,0.00,40.00,17,8,36,0.04
2012-5-1,54,49,44,32,22,16,50,36,24,0.00,40.00,23,14,36,0.04
2012-5-2,56,45,33,28,21,16,58,40,22,0.00,40.00,18,8,35,0.00
2012-5-3,55,43,23,43,28,16,82,58,33,0.00,40.00,11,4,20,0.01
2012-5-4,67,53,40,40,32,26,92,51,22,0.00,40.00,16,8,27,0.21
2012-5-5,52,45,41,40,28,-100,92,56,34,0.00,40.00,19,12,31,0.43
2012-5-6,59,47,37,33,25,21,61,44,26,0.00,40.00,12,6,19,0.00
2012-5-7,69,50,28,31,26,23,80,46,21,0.00,40.00,10,5,15,0.00
2012-5-8,78,59,36,35,28,22,78,36,13,0.00,40.00,13,8,21,0.00
2012-5-9,81,67,52,41,31,26,49,28,15,0.00,40.00,17,10,32,0.00
2012-5-10,61,51,37,29,14,1,36,23,11,0.00,40.00,17,12,32,0.00
2012-5-11,66,45,25,16,11,0,54,29,9,0.00,40.00,10,5,19,0.00
2012-5-12,75,50,29,22,14,-100,57,29,10,0.00,40.00,8,4,16,0.00
2012-5-13,83,55,33,27,20,13,59,29,11,0.00,40.00,9,4,17,0.00
2012-5-14,80,62,37,34,25,16,58,28,12,0.00,40.00,14,6,20,0.00
2012-5-15,90,65,42,37,31,19,68,34,9,0.00,40.00,9,6,16,0.00
2012-5-16,85,64,48,39,29,20,53,30,11,0.00,40.00,15,6,26,0.00
2012-5-17,66,58,51,50,38,24,95,50,21,0.00,40.00,12,6,21,0.04
2012-5-18,60,53,38,50,41,28,97,66,31,0.00,40.00,16,7,25,0.04
2012-5-19,66,51,34,37,28,-100,91,50,19,0.00,40.00,9,5,18,0.00
2012-5-20,75,58,36,35,31,27,70,40,20,0.00,40.00,11,6,20,0.00
2012-5-21,82,67,56,50,42,33,73,42,25,0.00,40.00,12,6,20,0.00
2012-5-22,61,57,50,54,39,28,90,55,30,0.00,40.00,20,12,37,0.14
2012-5-23,60,52,46,32,29,26,52,41,31,0.00,40.00,17,12,27,0.01
2012-5-24,53,46,39,39,34,28,80,64,50,0.00,40.00,17,8,24,0.01
2012-5-25,49,44,38,36,33,28,82,66,45,0.00,40.00,18,11,37,0.03
2012-5-26,43,39,33,37,34,30,96,82,61,0.00,40.00,17,8,26,0.52
2012-5-27,41,35,32,37,34,31,98,93,82,0.00,40.00,9,4,15,0.76
2012-5-28,56,42,32,41,37,32,98,83,53,0.00,40.00,8,4,14,0.53
2012-5-29,65,53,35,44,37,27,99,61,28,0.00,40.00,17,8,35,0.11
2012-5-30,64,57,48,37,30,25,65,35,29,0.00,40.00,14,8,22,0.00
2012-5-31,66,55,39,46,40,34,89,61,41,0.00,40.00,19,8,28,0.00
2012-6-1,72,63,53,48,45,42,76,53,42,0.00,40.00,14,8,23,0.00
2012-6-2,78,62,53,53,45,-100,78,58,35,0.00,40.00,17,7,29,0.01
2012-6-3,78,63,50,47,39,34,61,42,28,0.00,40.00,8,5,17,0.01
2012-6-4,78,63,45,55,48,41,86,60,40,0.00,40.00,14,6,30,0.00
2012-6-5,77,64,52,61,55,43,91,72,49,0.00,40.00,16,6,41,0.51
2012-6-6,62,53,46,45,34,28,74,49,32,0.00,40.00,20,11,32,0.47
2012-6-7,75,57,35,38,33,28,86,45,19,0.00,40.00,10,6,20,0.01
2012-6-8,73,59,48,42,37,31,63,46,24,0.00,40.00,13,7,27,0.00
2012-6-9,61,53,42,37,30,24,74,46,24,0.00,40.00,19,10,31,0.00
2012-6-10,53,49,46,44,36,28,83,63,44,0.00,40.00,15,9,25,0.33
2012-6-11,72,59,47,45,40,37,79,52,30,0.00,40.00,9,5,20,0.03
2012-6-12,79,62,42,46,41,36,93,52,24,0.00,40.00,13,6,25,0.00
2012-6-13,66,60,55,50,42,34,83,54,37,0.00,40.00,17,10,37,0.09
2012-6-14,75,62,45,42,36,29,78,42,21,0.00,40.00,10,7,18,0.02
2012-6-15,76,65,56,39,34,25,48,32,17,0.00,40.00,12,7,39,0.00
2012-6-16,75,61,44,42,31,-100,79,42,9,0.00,40.00,17,9,33,0.00
2012-6-17,76,70,62,50,41,33,51,35,25,0.00,40.00,21,14,42,0.00
2012-6-18,68,62,53,39,34,28,47,36,24,0.00,40.00,17,10,28,0.00
2012-6-19,64,56,46,40,36,32,63,47,36,0.00,40.00,14,9,24,0.00
2012-6-20,74,63,49,41,37,30,65,41,23,0.00,40.00,8,6,16,0.00
2012-6-21,81,65,43,47,41,36,77,46,22,0.00,40.00,13,8,23,0.00
2012-6-22,77,64,51,51,48,44,82,57,39,0.00,40.00,12,7,21,0.00
2012-6-23,86,69,55,60,54,48,83,61,40,0.00,40.00,12,7,23,0.00
2012-6-24,85,71,57,61,56,52,86,63,39,0.00,40.00,14,8,23,0.00
2012-6-25,86,75,65,64,61,59,88,64,42,0.00,40.00,16,8,26,0.00
2012-6-26,75,68,55,60,48,28,81,52,22,0.00,40.00,25,12,46,0.00
2012-6-27,76,63,52,33,29,25,44,30,16,0.00,40.00,18,11,32,0.00
2012-6-28,92,65,42,40,32,22,64,34,8,0.00,40.00,11,5,28,0.00
2012-6-29,86,73,56,43,39,32,51,31,15,0.00,40.00,16,9,31,0.00
2012-6-30,92,76,51,49,44,38,74,36,18,0.00,40.00,11,5,21,0.00
2012-7-1,85,73,58,52,46,41,68,42,24,0.00,40.00,13,6,25,0.00
2012-7-2,89,73,50,53,46,41,90,46,19,0.00,40.00,11,5,19,0.00
2012-7-3,81,71,54,50,42,28,63,37,22,0.00,40.00,21,11,35,0.00
2012-7-4,84,70,55,28,24,16,28,19,11,0.00,40.00,14,9,28,0.00
2012-7-5,83,68,50,41,33,24,43,28,18,0.00,40.00,13,5,20,0.00
2012-7-6,93,72,52,53,45,35,72,43,15,0.00,40.00,14,5,35,0.00
2012-7-7,94,72,51,51,46,35,79,44,17,0.00,40.00,11,6,29,0.03
2012-7-8,95,77,54,52,45,35,70,38,13,0.00,40.00,9,5,23,0.03
2012-7-9,101,78,56,48,42,27,61,33,10,0.00,40.00,16,5,33,0.03
2012-7-10,95,81,62,51,43,32,61,30,12,0.00,40.00,13,6,27,0.03
2012-7-11,94,78,61,50,43,34,63,33,13,0.00,40.00,9,6,21,0.00
2012-7-12,99,80,60,49,40,24,53,29,8,0.00,40.00,14,7,23,0.00
2012-7-13,87,77,59,60,48,31,54,37,20,0.00,40.00,11,6,32,0.03
2012-7-14,86,72,64,65,60,51,90,70,39,0.00,40.00,10,5,32,0.06
2012-7-15,83,72,62,65,54,35,89,58,32,0.00,40.00,15,6,35,0.36
2012-7-16,82,67,50,60,53,48,93,64,37,0.00,40.00,13,6,21,0.06
2012-7-17,90,73,58,62,56,47,96,62,25,0.00,40.00,10,4,20,0.01
2012-7-18,98,80,60,57,48,37,78,41,13,0.00,40.00,12,7,21,0.01
2012-7-19,97,80,61,50,41,29,59,30,10,0.00,40.00,11,5,22,0.00
2012-7-20,94,77,64,57,45,38,67,34,17,0.00,40.00,13,5,24,0.00
2012-7-21,93,76,58,61,49,30,93,48,14,0.00,40.00,18,8,32,0.00
2012-7-22,95,75,53,45,41,37,62,33,15,0.00,40.00,13,6,32,0.00
2012-7-23,93,81,60,53,41,18,55,28,10,0.00,40.00,16,9,32,0.00
2012-7-24,85,74,60,37,28,21,32,19,13,0.00,40.00,21,12,33,0.00
2012-7-25,86,71,51,46,42,37,61,37,23,0.00,40.00,15,7,22,0.00
2012-7-26,83,71,53,59,48,43,76,48,31,0.00,40.00,12,6,20,0.01
2012-7-27,94,71,56,55,48,38,78,50,15,0.00,40.00,16,6,35,0.05
2012-7-28,94,79,62,52,46,36,64,35,13,0.00,40.00,13,8,29,0.05
2012-7-29,97,77,57,47,42,30,62,32,10,0.00,40.00,11,6,20,0.00
2012-7-30,99,77,57,45,40,29,53,30,9,0.00,40.00,19,6,54,0.00
2012-7-31,94,77,56,46,39,29,56,29,11,0.00,40.00,14,6,27,0.00
2012-8-1,88,72,56,49,41,31,61,35,14,0.00,40.00,14,7,21,0.00
2012-8-2,84,75,60,48,36,23,57,28,12,0.00,40.00,14,10,25,0.00
2012-8-3,75,61,45,49,42,35,94,55,25,0.00,40.00,9,6,19,0.04
2012-8-4,87,67,45,44,37,24,79,42,10,0.00,40.00,9,6,17,0.04
2012-8-5,98,75,49,40,35,31,53,28,10,0.00,40.00,10,6,16,0.00
2012-8-6,95,76,57,45,41,38,50,30,14,0.00,40.00,12,7,22,0.00
2012-8-7,96,79,55,49,38,27,59,28,10,0.00,40.00,10,6,25,0.00
2012-8-8,101,76,51,51,36,28,45,26,11,0.00,40.00,15,5,39,0.00
2012-8-9,95,79,60,50,44,36,63,34,16,0.00,40.00,12,7,18,0.00
2012-8-10,90,75,60,54,44,33,54,34,21,0.00,40.00,10,6,20,0.03
2012-8-11,87,73,59,57,49,-100,81,48,22,0.00,40.00,14,7,22,0.05
2012-8-12,88,73,54,52,49,43,77,46,26,0.00,40.00,11,6,19,0.00
2012-8-13,91,74,55,53,47,40,77,43,19,0.00,40.00,11,7,19,0.00
2012-8-14,93,76,53,52,40,31,84,33,13,0.00,40.00,17,9,34,0.00
2012-8-15,59,54,47,52,48,43,97,83,58,0.00,40.00,7,4,16,0.59
2012-8-16,83,63,41,49,43,38,99,58,21,0.00,40.00,11,5,17,0.03
2012-8-17,87,68,48,46,38,29,79,41,13,0.00,40.00,11,6,19,0.00
2012-8-18,89,70,49,42,37,33,63,34,14,0.00,40.00,12,7,20,0.00
2012-8-19,94,72,49,42,37,27,65,32,10,0.00,40.00,9,5,13,0.00
2012-8-20,94,74,54,41,38,34,52,31,14,0.00,40.00,7,5,22,0.00
2012-8-21,94,73,59,56,44,37,79,41,15,0.00,40.00,15,6,27,0.03
2012-8-22,86,72,58,57,44,28,81,44,13,0.00,40.00,16,8,29,0.04
2012-8-23,88,68,46,39,32,26,62,32,13,0.00,40.00,20,8,32,0.00
2012-8-24,72,65,52,31,25,20,37,23,14,0.00,40.00,20,9,35,0.00
2012-8-25,82,59,36,36,25,4,64,33,5,0.00,40.00,12,6,21,0.00
2012-8-26,85,64,43,34,29,24,50,29,15,0.00,40.00,12,6,17,0.00
2012-8-27,97,74,55,55,40,29,60,31,14,0.00,40.00,17,6,36,0.01
2012-8-28,98,76,54,55,44,30,84,44,9,0.00,40.00,11,6,17,0.01
2012-8-29,80,67,51,41,33,22,51,31,13,0.00,40.00,18,9,30,0.00
2012-8-30,87,64,43,37,30,22,57,32,11,0.00,40.00,8,4,21,0.00
2012-8-31,93,69,45,40,31,26,52,28,11,0.00,40.00,13,6,20,0.00
2012-9-1,86,75,65,52,40,10,55,33,8,0.00,40.00,20,10,40,0.00
2012-9-2,80,69,53,25,19,14,21,15,10,0.00,40.00,21,10,32,0.00
2012-9-3,79,67,53,31,24,15,33,20,10,0.00,40.00,17,9,29,0.00
2012-9-4,67,61,49,40,33,24,58,35,23,0.00,40.00,18,7,24,0.00
2012-9-5,81,62,43,38,34,29,73,41,17,0.00,40.00,12,7,25,0.00
2012-9-6,63,56,45,46,42,36,83,61,39,0.00,40.00,9,6,17,0.00
2012-9-7,84,59,38,47,36,21,94,54,13,0.00,40.00,9,5,17,0.00
2012-9-8,89,64,39,37,27,20,52,28,11,0.00,40.00,11,5,17,0.00
2012-9-9,92,68,43,36,28,21,48,26,11,0.00,40.00,13,5,21,0.00
2012-9-10,78,70,56,38,29,21,34,23,12,0.00,40.00,19,12,36,0.00
2012-9-11,64,58,49,30,21,10,36,25,12,0.00,40.00,17,10,29,0.00
2012-9-12,68,54,35,22,18,10,44,26,16,0.00,40.00,10,4,18,0.00
2012-9-13,83,59,35,29,23,17,54,28,12,0.00,40.00,7,4,12,0.00
2012-9-14,86,65,47,29,23,19,42,24,9,0.00,40.00,16,7,30,0.00
2012-9-15,76,62,47,33,28,21,42,29,17,0.00,40.00,11,5,17,0.00
2012-9-16,68,57,43,34,31,28,59,38,25,0.00,40.00,10,6,17,0.00
2012-9-17,80,59,37,35,31,26,66,39,18,0.00,40.00,9,5,14,0.00
2012-9-18,86,65,42,38,30,21,59,32,12,0.00,40.00,15,7,23,0.00
2012-9-19,85,64,40,36,31,24,65,33,13,0.00,40.00,8,4,20,0.00
2012-9-20,85,62,42,34,30,26,58,33,16,0.00,40.00,11,4,16,0.00
2012-9-21,83,63,41,37,32,26,56,34,18,0.00,40.00,12,6,20,0.00
2012-9-22,83,63,42,38,33,-100,64,36,18,0.00,40.00,10,6,14,0.00
2012-9-23,72,58,42,39,35,31,66,43,28,0.00,40.00,10,5,14,0.00
2012-9-24,85,60,42,41,35,31,73,45,17,0.00,40.00,8,4,13,0.00
2012-9-25,81,60,43,44,37,31,66,45,23,0.00,40.00,9,5,15,0.00
2012-9-26,66,57,47,47,44,39,79,63,47,0.00,40.00,13,6,19,0.00
2012-9-27,76,56,37,47,41,36,96,62,31,0.00,40.00,10,5,17,0.00
2012-9-28,86,62,41,44,35,27,80,45,13,0.00,40.00,9,6,17,0.00
2012-9-29,78,64,48,41,35,27,49,35,24,0.00,40.00,12,6,25,0.00
2012-9-30,77,65,51,42,38,34,56,37,24,0.00,40.00,13,6,23,0.00
2012-10-1,78,62,40,39,34,29,79,42,18,0.00,40.00,17,9,29,0.00
2012-10-2,73,66,41,40,33,15,82,32,16,0.00,40.00,22,15,33,0.00
2012-10-3,41,35,32,36,33,31,98,92,82,0.00,40.00,11,3,20,0.82
2012-10-4,40,36,34,34,31,27,93,81,66,0.00,40.00,9,5,14,0.10
2012-10-5,45,34,28,30,25,19,95,73,37,0.00,40.00,7,3,12,0.00
2012-10-6,47,37,26,30,24,19,89,61,37,0.00,40.00,9,6,15,0.00
2012-10-7,67,48,35,32,28,25,80,51,24,0.00,40.00,9,6,17,0.00
2012-10-8,46,40,35,44,36,28,93,84,69,0.00,40.00,10,4,16,0.15
2012-10-9,63,45,36,38,33,26,94,68,27,0.00,40.00,7,4,12,0.11
2012-10-10,67,49,35,39,34,29,86,60,27,0.00,40.00,14,7,23,0.00
2012-10-11,49,38,32,38,34,29,94,83,63,0.00,40.00,12,7,16,0.02
2012-10-12,74,57,38,37,30,19,89,43,14,0.00,40.00,21,10,33,0.01
2012-10-13,63,58,54,41,36,24,53,43,25,0.00,40.00,16,9,32,0.00
2012-10-14,68,59,53,40,38,34,56,45,31,0.00,40.00,18,10,35,0.00
2012-10-15,64,60,56,42,39,35,53,45,35,0.00,40.00,21,12,28,0.00
2012-10-16,61,54,44,50,34,18,85,48,28,0.00,40.00,24,13,44,0.18
2012-10-17,53,44,31,27,19,13,62,39,20,0.00,40.00,14,9,29,0.01
2012-10-18,61,45,26,29,22,18,77,44,20,0.00,40.00,15,7,25,0.00
2012-10-19,66,58,49,38,32,26,48,37,32,0.00,40.00,19,11,37,0.00
2012-10-20,56,50,32,37,29,17,58,45,33,0.00,40.00,17,11,35,0.00
2012-10-21,53,40,30,21,18,13,62,42,22,0.00,40.00,7,4,15,0.00
2012-10-22,41,32,25,29,22,17,94,70,43,0.00,40.00,13,5,18,0.00
2012-10-23,27,25,20,24,20,18,94,81,71,0.00,40.00,11,6,18,0.00
2012-10-24,27,24,22,22,20,18,87,84,79,0.00,40.00,9,7,14,0.01
2012-10-25,26,23,17,18,16,13,85,76,62,0.00,40.00,8,5,14,0.01
2012-10-26,37,28,18,27,21,14,85,74,55,0.00,40.00,8,6,13,0.10
2012-10-27,47,36,24,32,28,22,95,76,56,0.00,40.00,12,5,18,0.01
2012-10-28,57,50,41,40,36,30,68,59,49,0.00,40.00,19,10,29,0.00
2012-10-29,63,55,46,42,38,30,78,54,37,0.00,40.00,19,10,36,0.00
2012-10-30,65,57,51,37,34,32,54,44,31,0.00,40.00,16,10,30,0.00
2012-10-31,55,40,32,38,32,30,92,75,49,0.00,40.00,16,8,21,0.00
2012-11-1,63,44,32,42,33,29,92,70,31,0.00,40.00,14,6,29,0.00
2012-11-2,58,47,31,34,30,26,82,55,31,0.00,40.00,12,6,20,0.00
2012-11-3,56,45,29,39,30,26,89,60,35,0.00,40.00,12,8,23,0.00
2012-11-4,60,55,51,41,38,36,60,54,44,0.00,40.00,16,10,26,0.00
2012-11-5,67,61,54,42,39,35,54,44,34,0.00,40.00,18,11,32,0.00
2012-11-6,67,55,44,40,35,31,73,48,29,0.00,40.00,10,6,17,0.00
2012-11-7,66,52,30,38,29,15,52,40,30,0.00,40.00,15,9,32,0.00
2012-11-8,31,28,27,27,24,15,95,85,52,0.00,40.00,15,5,22,0.00
2012-11-9,28,18,11,26,13,6,95,81,73,0.00,40.00,13,6,22,0.00
2012-11-10,16,9,-3,8,2,-9,80,73,65,0.00,40.00,9,4,11,0.00
2012-11-11,31,17,0,14,6,-6,77,61,46,0.00,40.00,10,7,17,0.20
2012-11-12,39,33,27,25,17,12,61,51,41,0.00,40.00,15,8,26,0.10
2012-11-13,45,41,36,28,26,23,61,55,47,0.00,40.00,15,7,26,0.14
2012-11-14,47,41,34,29,25,-100,70,56,46,0.00,40.00,15,7,21,0.03
2012-11-15,47,40,34,26,23,21,68,52,37,0.00,40.00,12,8,19,0.00
2012-11-16,46,41,37,31,26,22,74,57,48,0.00,40.00,13,8,21,0.00
2012-11-17,53,45,36,32,31,28,76,59,42,0.00,40.00,12,8,18,0.00
2012-11-18,51,44,33,33,24,16,64,47,29,0.00,40.00,22,10,36,0.00
2012-11-19,56,48,35,29,23,15,54,37,31,0.00,40.00,16,10,32,0.00
2012-11-20,60,55,48,37,32,28,66,41,36,0.00,40.00,13,9,29,0.00
2012-11-21,48,42,37,41,33,18,93,71,44,0.00,40.00,15,6,37,0.43
2012-11-22,41,33,20,22,18,7,86,55,38,0.00,40.00,16,8,29,0.15
2012-11-23,51,41,30,24,19,15,54,42,32,0.00,40.00,13,9,25,0.00
2012-11-24,48,42,31,32,28,21,91,60,37,0.00,40.00,19,9,29,0.00
2012-11-25,37,30,22,29,25,20,94,83,60,0.00,40.00,10,4,22,0.00
2012-11-26,33,26,20,20,16,10,91,65,38,0.00,40.00,9,5,16,0.00
2012-11-27,44,40,32,19,15,10,42,36,33,0.00,40.00,9,6,20,0.00
2012-11-28,53,45,40,24,22,19,52,39,28,0.00,40.00,14,8,21,0.00
2012-11-29,54,49,40,34,29,24,64,47,34,0.00,40.00,11,7,22,0.00
2012-11-30,56,51,46,36,32,26,62,48,35,0.00,40.00,12,8,34,0.00
2012-12-1,53,46,40,36,30,25,74,55,36,0.00,40.00,13,8,39,0.05
2012-12-2,56,48,40,38,31,20,64,52,43,0.00,40.00,20,10,37,0.03
2012-12-3,46,43,40,24,22,19,49,43,35,0.00,40.00,21,14,39,0.02
2012-12-4,53,47,40,34,26,19,65,45,39,0.00,40.00,13,9,25,0.00
2012-12-5,53,47,33,37,23,7,61,41,20,0.00,40.00,24,12,43,0.01
2012-12-6,36,33,30,19,13,-100,55,47,42,0.00,40.00,13,6,20,0.01
2012-12-7,41,35,30,25,19,12,75,52,33,0.00,40.00,12,7,24,0.00
2012-12-8,31,22,8,25,17,3,93,82,68,0.00,40.00,9,6,19,0.00
2012-12-9,29,14,-2,13,3,-8,80,64,46,0.00,40.00,12,7,24,0.00
2012-12-10,37,28,15,22,15,11,87,58,43,0.00,40.00,12,5,24,0.00
2012-12-11,44,36,18,25,22,13,85,57,43,0.00,40.00,19,10,31,0.00
2012-12-12,39,34,28,32,28,24,92,78,55,0.00,40.00,11,5,15,0.00
2012-12-13,38,34,28,26,18,14,92,55,39,0.00,40.00,13,9,23,0.00
2012-12-14,43,32,24,23,17,12,66,53,38,0.00,40.00,11,7,18,0.00
2012-12-15,36,26,14,19,14,10,86,61,39,0.00,40.00,15,6,24,0.00
2012-12-16,36,33,30,15,12,9,52,42,35,0.00,40.00,19,10,29,0.00
2012-12-17,44,37,32,27,18,9,67,47,35,0.00,40.00,19,10,35,0.00
2012-12-18,33,28,19,13,7,4,63,41,30,0.00,40.00,15,10,28,0.00
2012-12-19,31,25,18,9,5,3,65,43,32,0.00,40.00,14,7,26,0.00
2012-12-20,41,35,29,14,9,5,36,34,31,0.00,40.00,16,11,30,0.00
2012-12-21,46,37,17,17,10,6,72,34,22,0.00,40.00,17,11,26,0.00
2012-12-22,17,14,12,10,8,6,82,76,72,0.00,40.00,10,8,17,0.00
2012-12-23,41,14,6,18,8,0,84,75,32,0.00,40.00,22,8,27,0.00
2012-12-24,6,2,-5,0,-5,-11,76,71,68,0.00,40.00,11,7,19,0.00
2012-12-25,11,2,-5,2,-5,-11,77,72,65,0.00,40.00,11,5,13,0.00
2012-12-26,8,4,1,1,-3,-6,76,72,67,0.00,40.00,12,7,16,0.00
2012-12-27,29,15,1,17,7,-5,79,70,57,0.00,40.00,10,6,14,0.00
2012-12-28,35,25,8,18,13,4,84,62,43,0.00,40.00,9,4,15,0.00
2012-12-29,32,28,18,14,10,6,70,47,39,0.00,40.00,11,5,20,0.00
2012-12-30,32,23,13,15,12,6,86,64,46,0.00,40.00,8,5,17,0.00
2012-12-31,30,23,15,14,10,6,79,57,46,0.00,40.00,7,4,13,0.00
2013-1-1,33,26,15,17,12,7,69,57,49,0.00,40.00,7,5,11,0.00